< < Back
Terminal Aerodrome Forecast


Current Version              Previous Versions:   1  2  3  4  5  6  7  8  9  

Terminal Aerodrome Forecast

630
FTUS44 KBMX 062337
TAFMGM
TAF
KMGM 062337Z 0700/0724 35003KT P6SM SKC
     FM071700 30008G18KT P6SM SCT250=

Latest METAR

067
SAUS80 KWBC 072100 RRB
MTRMGM
METAR KMGM 072053Z 28007KT 10SM CLR 15/M06 A3007 RMK AO2 SLP183
T01501056 56043


USA.gov is the U.S. government's official web portal to all federal, state and local government web resources and services.